METAR Data
IDs: Format: Raw Decoded Include TAF

Data at: 2211 UTC 02 Aug 2021

EPZG 022000Z VRB02KT CAVOK 14/10 Q1013